^^
Station Historical Data
 
Daily Summary for December 14, 2018 Units:  English    Metric   Both
« Previous Day
Next Day »
Daily Weekly Monthly Yearly Custom
  Current: High: Low: Average:
Temperature: -3.8 °F TemperatureC °F -3.8 °F -0.6 °F
Dew Point: -4.8 °F DewpointC °F -4.8 °F -1.8 °F
Humidity: 93% Humidity% 79% 92%
Wind Speed: 0.0mph WindSpeedKMHmph 0.0mph 6.7mph
Wind Gust: 0.0mph WindSpeedGustKMHmph - -
WindCalm - - SW
Pressure: 1024.3 in PressurehPa in 1020.3 in -
Precipitation: 0.0 in      
Historical Graphs
 
 
Tabular Data for December 14, 2018
Time Temperature Dew Point Pressure Wind Wind Speed Wind Gust Humidity Rainfall Rate (Hourly) solar Conditions
TemperatureC °F DewpointC °F PressurehPa in Calm     Humidity% HourlyPrecipMM in SoftwareType W/m2 Conditions
00:04 0.2 °F -0.5 °F 1020.3 in SSE 1.9 mph 0.3 mph 95% 0.0 in WeatherDisplay:10.37 W/m2 OVC
00:09 0.2 °F -0.5 °F 1020.4 in SE 3.7 mph 1.8 mph 95% 0.0 in WeatherDisplay:10.37 W/m2 OVC
00:14 0.2 °F -0.5 °F 1020.7 in SSE 3.7 mph 2.1 mph 95% 0.0 in WeatherDisplay:10.37 W/m2 OVC
00:19 0.2 °F -0.5 °F 1020.7 in SSW 3.7 mph 1.4 mph 95% 0.0 in WeatherDisplay:10.37 W/m2 OVC
00:24 0.2 °F -0.5 °F 1020.7 in WSW 1.4 mph 0.6 mph 95% 0.0 in WeatherDisplay:10.37 W/m2 OVC
00:29 0.2 °F -0.5 °F 1020.7 in SE 3.7 mph 1.4 mph 95% 0.0 in WeatherDisplay:10.37 W/m2 OVC
00:34 0.2 °F -0.5 °F 1020.7 in Calm   1.4 mph 95% 0.0 in WeatherDisplay:10.37 W/m2 OVC
00:39 0.2 °F -0.5 °F 1020.7 in Calm     95% 0.0 in WeatherDisplay:10.37 W/m2 OVC
00:44 0.2 °F -0.5 °F 1020.7 in West 1.4 mph 1.4 mph 95% 0.0 in WeatherDisplay:10.37 W/m2 OVC
00:49 0.3 °F -0.4 °F 1021.0 in West 3.7 mph 2.6 mph 95% 0.0 in WeatherDisplay:10.37 W/m2 OVC
00:54 0.3 °F -0.4 °F 1021.0 in SW 3.7 mph 2.1 mph 95% 0.0 in WeatherDisplay:10.37 W/m2 OVC
00:59 0.3 °F -0.4 °F 1020.7 in South 1.4 mph 0.6 mph 95% 0.0 in WeatherDisplay:10.37 W/m2 OVC
01:04 0.3 °F -0.4 °F 1020.7 in Calm   0.3 mph 95% 0.0 in WeatherDisplay:10.37 W/m2 OVC
01:09 0.3 °F -0.4 °F 1020.7 in West 1.9 mph 0.6 mph 95% 0.0 in WeatherDisplay:10.37 W/m2 OVC
01:14 0.3 °F -0.4 °F 1020.7 in WSW 3.7 mph 1.1 mph 95% 0.0 in WeatherDisplay:10.37 W/m2 OVC
01:19 0.3 °F -0.4 °F 1021.0 in West 3.2 mph 0.6 mph 95% 0.0 in WeatherDisplay:10.37 W/m2 OVC
01:24 0.3 °F -0.4 °F 1021.0 in West 3.7 mph 3.2 mph 95% 0.0 in WeatherDisplay:10.37 W/m2 OVC
01:29 0.3 °F -0.4 °F 1021.0 in SW 3.7 mph 1.4 mph 95% 0.0 in WeatherDisplay:10.37 W/m2 OVC
01:34 0.3 °F -0.4 °F 1021.0 in SW 1.9 mph 1.1 mph 95% 0.0 in WeatherDisplay:10.37 W/m2 OVC
01:39 0.3 °F -0.4 °F 1021.0 in Calm   0.6 mph 95% 0.0 in WeatherDisplay:10.37 W/m2 OVC
01:44 0.3 °F -0.4 °F 1021.4 in SW 1.9 mph 2.1 mph 95% 0.0 in WeatherDisplay:10.37 W/m2 OVC
01:49 0.3 °F -0.4 °F 1021.4 in SW 1.4 mph 1.4 mph 95% 0.0 in WeatherDisplay:10.37 W/m2 OVC
01:54 0.3 °F -0.4 °F 1021.0 in SSW 1.4 mph 0.3 mph 95% 0.0 in WeatherDisplay:10.37 W/m2 OVC
01:59 0.3 °F -0.4 °F 1021.4 in West 3.7 mph 1.8 mph 95% 0.0 in WeatherDisplay:10.37 W/m2 OVC
02:04 0.3 °F -0.4 °F 1021.0 in SW 1.9 mph 0.6 mph 95% 0.0 in WeatherDisplay:10.37 W/m2 OVC
02:09 0.3 °F -0.4 °F 1021.4 in SW 1.4 mph 0.6 mph 95% 0.0 in WeatherDisplay:10.37 W/m2 OVC
02:14 0.3 °F -0.4 °F 1021.0 in Calm   0.3 mph 95% 0.0 in WeatherDisplay:10.37 W/m2 OVC
02:19 0.3 °F -0.4 °F 1021.0 in SW 3.7 mph 1.1 mph 95% 0.0 in WeatherDisplay:10.37 W/m2 OVC
02:24 0.3 °F -0.4 °F 1021.0 in West 3.7 mph 1.1 mph 95% 0.0 in WeatherDisplay:10.37 W/m2 OVC
02:29 0.3 °F -0.4 °F 1021.0 in Calm   0.3 mph 95% 0.0 in WeatherDisplay:10.37 W/m2 OVC
02:34 0.3 °F -0.4 °F 1021.0 in SSW 3.7 mph 1.4 mph 95% 0.0 in WeatherDisplay:10.37 W/m2 OVC
02:39 0.3 °F -0.4 °F 1021.4 in SW 1.9 mph 1.1 mph 95% 0.0 in WeatherDisplay:10.37 W/m2 OVC
02:44 0.3 °F -0.4 °F 1021.0 in SW 3.2 mph 1.1 mph 95% 0.0 in WeatherDisplay:10.37 W/m2 OVC
02:49 0.3 °F -0.4 °F 1020.7 in SSW 1.4 mph 0.6 mph 95% 0.0 in WeatherDisplay:10.37 W/m2 OVC
02:54 0.3 °F -0.4 °F 1020.7 in SSW 3.7 mph 1.8 mph 95% 0.0 in WeatherDisplay:10.37 W/m2 OVC
02:59 0.3 °F -0.4 °F 1020.7 in Calm   0.3 mph 95% 0.0 in WeatherDisplay:10.37 W/m2 OVC
03:04 0.1 °F -0.6 °F 1020.7 in SSW 3.2 mph 0.6 mph 95% 0.0 in WeatherDisplay:10.37 W/m2 SCT
03:09 -0.1 °F -0.8 °F 1021.0 in Calm   0.3 mph 95% 0.0 in WeatherDisplay:10.37 W/m2 SCT
03:14 -0.3 °F -1.0 °F 1021.0 in West 1.9 mph 0.3 mph 95% 0.0 in WeatherDisplay:10.37 W/m2 SCT
03:19 -0.4 °F -1.1 °F 1021.0 in West 1.9 mph 1.4 mph 95% 0.0 in WeatherDisplay:10.37 W/m2 SCT
03:24 -0.5 °F -1.2 °F 1021.0 in West 1.4 mph 0.6 mph 95% 0.0 in WeatherDisplay:10.37 W/m2 SCT
03:29 -0.7 °F -1.4 °F 1021.0 in West 3.7 mph 2.6 mph 95% 0.0 in WeatherDisplay:10.37 W/m2 SCT
03:34 -0.7 °F -1.4 °F 1021.4 in SW 3.7 mph 1.8 mph 95% 0.0 in WeatherDisplay:10.37 W/m2 SCT
03:39 -0.8 °F -1.5 °F 1021.4 in West 1.9 mph 1.1 mph 95% 0.0 in WeatherDisplay:10.37 W/m2 SCT
03:44 -0.8 °F -1.5 °F 1021.4 in WNW 6.4 mph 3.5 mph 95% 0.0 in WeatherDisplay:10.37 W/m2 SCT
03:49 -0.7 °F -1.4 °F 1021.4 in West 7.9 mph 5.0 mph 95% 0.0 in WeatherDisplay:10.37 W/m2 BKN
03:54 -0.5 °F -1.2 °F 1021.4 in West 11.1 mph 9.3 mph 95% 0.0 in WeatherDisplay:10.37 W/m2 BKN
03:59 -0.5 °F -1.2 °F 1021.7 in SSW 11.1 mph 7.6 mph 95% 0.0 in WeatherDisplay:10.37 W/m2 BKN
04:04 -0.5 °F -1.2 °F 1021.4 in West 7.4 mph 7.2 mph 95% 0.0 in WeatherDisplay:10.37 W/m2 OVC
04:09 -0.5 °F -1.2 °F 1021.4 in West 9.3 mph 5.8 mph 95% 0.0 in WeatherDisplay:10.37 W/m2 OVC
04:14 -0.5 °F -1.2 °F 1021.8 in WNW 9.7 mph 7.2 mph 95% 0.0 in WeatherDisplay:10.37 W/m2 OVC
04:19 -0.5 °F -1.2 °F 1021.4 in West 7.4 mph 7.9 mph 95% 0.0 in WeatherDisplay:10.37 W/m2 OVC
04:24 -0.5 °F -1.2 °F 1021.4 in West 12.9 mph 8.7 mph 95% 0.0 in WeatherDisplay:10.37 W/m2 OVC
04:29 -0.5 °F -1.2 °F 1021.8 in SSW 7.9 mph 8.2 mph 95% 0.0 in WeatherDisplay:10.37 W/m2 OVC
04:34 -0.5 °F -1.2 °F 1021.8 in West 13.0 mph 10.5 mph 95% 0.0 in WeatherDisplay:10.37 W/m2 OVC
04:39 -0.5 °F -1.2 °F 1021.8 in West 11.1 mph 7.2 mph 95% 0.0 in WeatherDisplay:10.37 W/m2 OVC
04:44 -0.5 °F -1.2 °F 1021.8 in WNW 9.3 mph 7.9 mph 95% 0.0 in WeatherDisplay:10.37 W/m2 OVC
04:49 -0.5 °F -1.2 °F 1021.8 in West 7.4 mph 5.5 mph 95% 0.0 in WeatherDisplay:10.37 W/m2 OVC
04:54 -0.5 °F -1.2 °F 1021.8 in WNW 5.6 mph 4.3 mph 95% 0.0 in WeatherDisplay:10.37 W/m2 OVC
04:59 -0.5 °F -1.2 °F 1021.8 in SW 6.4 mph 4.3 mph 95% 0.0 in WeatherDisplay:10.37 W/m2 OVC
05:04 -0.5 °F -1.2 °F 1021.8 in West 11.1 mph 6.8 mph 95% 0.0 in WeatherDisplay:10.37 W/m2 OVC
05:09 -0.5 °F -1.2 °F 1021.8 in NW 7.4 mph 5.8 mph 95% 0.0 in WeatherDisplay:10.37 W/m2 OVC
05:14 -0.5 °F -1.2 °F 1021.8 in SW 5.6 mph 4.0 mph 95% 0.0 in WeatherDisplay:10.37 W/m2 OVC
05:19 -0.5 °F -1.2 °F 1021.8 in West 5.6 mph 4.7 mph 95% 0.0 in WeatherDisplay:10.37 W/m2 OVC
05:24 -0.7 °F -1.4 °F 1021.8 in West 5.6 mph 5.0 mph 95% 0.0 in WeatherDisplay:10.37 W/m2 OVC
05:29 -0.7 °F -1.4 °F 1022.2 in West 5.6 mph 3.5 mph 95% 0.0 in WeatherDisplay:10.37 W/m2 OVC
05:34 -0.7 °F -1.4 °F 1022.2 in West 5.6 mph 6.4 mph 95% 0.0 in WeatherDisplay:10.37 W/m2 OVC
05:39 -0.7 °F -1.4 °F 1022.5 in SW 6.4 mph 6.8 mph 95% 0.0 in WeatherDisplay:10.37 W/m2 OVC
05:44 -0.7 °F -1.4 °F 1022.5 in West 6.4 mph 4.0 mph 95% 0.0 in WeatherDisplay:10.37 W/m2 OVC
05:49 -0.7 °F -1.4 °F 1022.5 in West 5.6 mph 5.8 mph 95% 0.0 in WeatherDisplay:10.37 W/m2 OVC
05:54 -0.7 °F -1.4 °F 1022.2 in West 5.6 mph 3.2 mph 95% 0.0 in WeatherDisplay:10.37 W/m2 OVC
05:59 -0.7 °F -1.4 °F 1022.5 in West 3.7 mph 3.2 mph 95% 0.0 in WeatherDisplay:10.37 W/m2 OVC
06:04 -0.8 °F -1.5 °F 1022.5 in West 4.7 mph 4.3 mph 95% 0.0 in WeatherDisplay:10.37 W/m2 OVC
06:09 -0.8 °F -1.5 °F 1022.5 in WSW 6.4 mph 3.2 mph 95% 0.0 in WeatherDisplay:10.37 W/m2 OVC
06:14 -0.9 °F -1.6 °F 1022.8 in SW 5.6 mph 4.7 mph 95% 0.0 in WeatherDisplay:10.37 W/m2 OVC
06:19 -0.9 °F -1.6 °F 1022.5 in SW 5.6 mph 4.7 mph 95% 0.0 in WeatherDisplay:10.37 W/m2 OVC
06:24 -0.9 °F -1.6 °F 1022.5 in West 5.6 mph 4.3 mph 95% 0.0 in WeatherDisplay:10.37 W/m2 OVC
06:29 -0.9 °F -1.6 °F 1022.5 in WSW 3.7 mph 4.0 mph 95% 0.0 in WeatherDisplay:10.37 W/m2 OVC
06:34 -1.1 °F -1.8 °F 1022.8 in WSW 3.7 mph 2.1 mph 95% 0.0 in WeatherDisplay:10.37 W/m2 OVC
06:39 -1.1 °F -1.8 °F 1022.8 in WSW 7.4 mph 4.3 mph 95% 0.0 in WeatherDisplay:10.37 W/m2 OVC
06:44 -1.2 °F -1.9 °F 1022.8 in WNW 7.4 mph 4.3 mph 95% 0.0 in WeatherDisplay:10.37 W/m2 OVC
06:49 -1.2 °F -1.9 °F 1022.5 in West 5.6 mph 3.2 mph 95% 0.0 in WeatherDisplay:10.37 W/m2 OVC
06:54 -1.2 °F -1.9 °F 1022.8 in West 5.6 mph 5.0 mph 95% 0.0 in WeatherDisplay:10.37 W/m2 OVC
06:59 -1.2 °F -1.9 °F 1022.8 in SSW 5.6 mph 4.3 mph 95% 0.0 in WeatherDisplay:10.37 W/m2 OVC
07:04 -1.2 °F -1.9 °F 1022.8 in West 7.4 mph 4.7 mph 95% 0.0 in WeatherDisplay:10.37 W/m2 OVC
07:09 -1.2 °F -1.9 °F 1022.5 in West 5.6 mph 4.7 mph 95% 0.0 in WeatherDisplay:10.37 W/m2 OVC
07:14 -1.3 °F -2.0 °F 1022.8 in SW 9.3 mph 5.0 mph 95% 0.0 in WeatherDisplay:10.37 W/m2 OVC
07:19 -1.3 °F -2.0 °F 1022.8 in SW 5.6 mph 3.5 mph 95% 0.0 in WeatherDisplay:10.37 W/m2 OVC
07:24 -1.3 °F -2.0 °F 1022.8 in SSW 5.6 mph 4.3 mph 95% 0.0 in WeatherDisplay:10.37 W/m2 OVC
07:29 -1.3 °F -2.0 °F 1022.8 in South 11.1 mph 3.5 mph 95% 0.0 in WeatherDisplay:10.37 W/m2 OVC
07:34 -1.6 °F -2.3 °F 1022.8 in SSW 11.1 mph 8.2 mph 95% 0.0 in WeatherDisplay:10.37 W/m2 OVC
07:39 -1.6 °F -2.3 °F 1022.8 in SW 11.1 mph 6.4 mph 95% 0.0 in WeatherDisplay:10.37 W/m2 OVC
07:44 -1.6 °F -2.3 °F 1022.8 in SW 7.9 mph 4.7 mph 95% 0.0 in WeatherDisplay:10.37 W/m2 OVC
07:49 -1.6 °F -2.3 °F 1022.8 in SW 11.1 mph 8.2 mph 95% 0.0 in WeatherDisplay:10.37 W/m2 OVC
07:54 -1.6 °F -2.3 °F 1022.8 in SW 7.4 mph 5.8 mph 95% 0.0 in WeatherDisplay:10.37 W/m2 OVC
07:59 -1.6 °F -2.3 °F 1022.8 in SSW 3.7 mph 4.3 mph 95% 0.0 in WeatherDisplay:10.37 W/m2 OVC
08:04 -1.6 °F -2.3 °F 1022.5 in WSW 7.4 mph 5.8 mph 95% 0.0 in WeatherDisplay:10.37 W/m2 OVC
08:09 -1.6 °F -2.3 °F 1022.8 in SSW 13.0 mph 6.8 mph 95% 0.0 in WeatherDisplay:10.37 W/m2 OVC
08:14 -1.6 °F -2.3 °F 1022.8 in SW 5.6 mph 7.2 mph 95% 0.0 in WeatherDisplay:10.37 W/m2 OVC
08:19 -1.6 °F -2.3 °F 1023.2 in SW 5.6 mph 4.7 mph 95% 0.0 in WeatherDisplay:10.37 W/m2 OVC
08:24 -1.6 °F -2.3 °F 1022.8 in SSW 5.6 mph 5.8 mph 95% 0.0 in WeatherDisplay:10.37 W/m2 OVC
08:29 -1.6 °F -2.3 °F 1022.8 in SSW 5.6 mph 6.4 mph 95% 0.0 in WeatherDisplay:10.37 W/m2 OVC
08:34 -1.8 °F -2.5 °F 1023.2 in SSW 7.4 mph 7.6 mph 95% 0.0 in WeatherDisplay:10.37 W/m2 OVC
08:39 -1.8 °F -2.5 °F 1023.2 in SW 9.7 mph 7.9 mph 95% 0.0 in WeatherDisplay:10.37 W/m2 OVC
08:44 -1.9 °F -2.6 °F 1023.2 in West 3.7 mph 5.8 mph 95% 0.0 in WeatherDisplay:10.37 W/m2 OVC
08:49 -1.9 °F -2.6 °F 1023.2 in West 5.6 mph 7.6 mph 95% 0.0 in WeatherDisplay:10.37 W/m2 OVC
08:54 -1.9 °F -2.6 °F 1023.5 in West 12.9 mph 7.6 mph 95% 0.0 in WeatherDisplay:10.37 W/m2 OVC
08:59 -1.9 °F -2.6 °F 1023.5 in WNW 6.4 mph 6.4 mph 95% 0.0 in WeatherDisplay:10.37 W/m2 OVC
09:04 -1.8 °F -2.5 °F 1023.2 in WSW 6.4 mph 5.0 mph 95% 0.0 in WeatherDisplay:10.37 W/m2 OVC
09:09 -1.8 °F -2.5 °F 1023.5 in SSW 7.9 mph 8.2 mph 95% 0.0 in WeatherDisplay:10.37 W/m2 OVC
09:14 -1.8 °F -2.5 °F 1023.5 in WSW 7.4 mph 5.8 mph 95% 0.0 in WeatherDisplay:10.37 W/m2 OVC
09:19 -1.8 °F -2.8 °F 1023.5 in WSW 9.7 mph 6.4 mph 93% 0.0 in WeatherDisplay:10.37 W/m2 OVC
09:24 -1.8 °F -2.8 °F 1023.5 in SW 13.0 mph 6.8 mph 93% 0.0 in WeatherDisplay:10.37 W/m2 OVC
09:29 -1.8 °F -2.8 °F 1023.5 in West 7.9 mph 6.1 mph 93% 0.0 in WeatherDisplay:10.37 W/m2 OVC
09:34 -1.8 °F -2.8 °F 1023.2 in South 11.1 mph 8.7 mph 93% 0.0 in WeatherDisplay:10.37 W/m2 OVC
09:39 -1.8 °F -2.8 °F 1023.2 in SW 6.4 mph 8.7 mph 93% 0.0 in WeatherDisplay:10.37 W/m2 OVC
09:44 -1.6 °F -2.6 °F 1023.2 in SW 5.6 mph 5.5 mph 93% 0.0 in WeatherDisplay:10.37 W/m2 OVC
09:49 -1.6 °F -2.6 °F 1023.2 in SSW 11.1 mph 7.9 mph 93% 0.0 in WeatherDisplay:10.37 W/m2 OVC
09:54 -1.6 °F -2.6 °F 1023.2 in SSW 9.3 mph 8.2 mph 93% 0.0 in WeatherDisplay:10.37 W/m2 OVC
09:59 -1.6 °F -2.6 °F 1023.2 in SSW 13.0 mph 9.3 mph 93% 0.0 in WeatherDisplay:10.37 W/m2 OVC
10:04 -1.6 °F -2.6 °F 1023.2 in SW 9.7 mph 7.9 mph 93% 0.0 in WeatherDisplay:10.37 W/m2 OVC
10:09 -1.6 °F -2.6 °F 1023.2 in SW 7.9 mph 6.1 mph 93% 0.0 in WeatherDisplay:10.37 W/m2 OVC
10:14 -1.3 °F -2.3 °F 1023.2 in West 6.4 mph 5.0 mph 93% 0.0 in WeatherDisplay:10.37 W/m2 OVC
10:19 -1.4 °F -2.4 °F 1023.2 in West 5.6 mph 5.8 mph 93% 0.0 in WeatherDisplay:10.37 W/m2 OVC
10:24 -1.6 °F -2.6 °F 1023.2 in WSW 7.4 mph 8.2 mph 93% 0.0 in WeatherDisplay:10.37 W/m2 OVC
10:29 -1.3 °F -2.3 °F 1023.2 in West 9.7 mph 8.2 mph 93% 0.0 in WeatherDisplay:10.37 W/m2 OVC
10:34 -1.3 °F -2.3 °F 1023.2 in West 9.3 mph 7.2 mph 93% 0.0 in WeatherDisplay:10.37 W/m2 OVC
10:39 -1.2 °F -2.2 °F 1022.8 in West 6.4 mph 7.6 mph 93% 0.0 in WeatherDisplay:10.37 W/m2 OVC
10:44 -1.2 °F -2.2 °F 1022.8 in SW 7.4 mph 6.4 mph 93% 0.0 in WeatherDisplay:10.37 W/m2 OVC
10:49 -1.2 °F -2.2 °F 1022.8 in SSE 9.7 mph 6.1 mph 93% 0.0 in WeatherDisplay:10.37 W/m2 OVC
10:54 -1.2 °F -2.2 °F 1022.8 in SSW 12.9 mph 9.7 mph 93% 0.0 in WeatherDisplay:10.37 W/m2 OVC
10:59 -1.4 °F -2.4 °F 1022.8 in West 9.3 mph 11.9 mph 93% 0.0 in WeatherDisplay:10.37 W/m2 OVC
11:04 -1.3 °F -2.3 °F 1022.8 in South 9.3 mph 7.6 mph 93% 0.0 in WeatherDisplay:10.37 W/m2 BKN
11:09 -1.1 °F -2.1 °F 1022.8 in SW 11.1 mph 7.9 mph 93% 0.0 in WeatherDisplay:10.37 W/m2 BKN
11:14 -0.8 °F -2.1 °F 1022.8 in SSW 14.8 mph 9.0 mph 91% 0.0 in WeatherDisplay:10.37 W/m2 BKN
11:19 -0.8 °F -2.1 °F 1022.8 in West 9.3 mph 7.2 mph 91% 0.0 in WeatherDisplay:10.37 W/m2 BKN
11:24 -0.8 °F -2.1 °F 1022.8 in West 9.3 mph 7.6 mph 91% 0.0 in WeatherDisplay:10.37 W/m2 BKN
11:29 -0.7 °F -2.0 °F 1022.8 in West 11.1 mph 8.2 mph 91% 0.0 in WeatherDisplay:10.37 W/m2 BKN
11:34 -0.5 °F -1.8 °F 1022.5 in WNW 9.7 mph 7.6 mph 91% 0.0 in WeatherDisplay:10.37 W/m2 BKN
11:39 -0.4 °F -1.7 °F 1022.5 in SW 11.1 mph 7.6 mph 91% 0.0 in WeatherDisplay:10.37 W/m2 BKN
11:44 -0.2 °F -1.7 °F 1022.5 in WSW 9.3 mph 7.6 mph 90% 0.0 in WeatherDisplay:10.37 W/m2 BKN
11:49 -0.1 °F -1.6 °F 1022.5 in South 9.3 mph 7.6 mph 90% 0.0 in WeatherDisplay:10.37 W/m2 SCT
11:54 0.1 °F -1.3 °F 1022.5 in SSW 13.0 mph 10.8 mph 90% 0.0 in WeatherDisplay:10.37 W/m2 SCT
11:59 0.1 °F -1.3 °F 1022.5 in South 13.0 mph 10.5 mph 90% 0.0 in WeatherDisplay:10.37 W/m2 SCT
12:04 0.3 °F -1.2 °F 1022.5 in SSW 11.1 mph 8.7 mph 90% 0.0 in WeatherDisplay:10.37 W/m2 CLR
12:09 0.7 °F -1.1 °F 1022.5 in West 6.4 mph 6.8 mph 88% 0.0 in WeatherDisplay:10.37 W/m2 CLR
12:14 0.7 °F -1.1 °F 1022.5 in SW 6.4 mph 6.8 mph 88% 0.0 in WeatherDisplay:10.37 W/m2 CLR
12:19 0.8 °F -0.9 °F 1022.2 in SW 11.1 mph 9.0 mph 88% 0.0 in WeatherDisplay:10.37 W/m2 CLR
12:24 1.0 °F -0.8 °F 1022.2 in SSW 9.3 mph 7.9 mph 88% 0.0 in WeatherDisplay:10.37 W/m2 CLR
12:29 1.2 °F -0.6 °F 1021.8 in SSW 7.9 mph 5.5 mph 88% 0.0 in WeatherDisplay:10.37 W/m2 CLR
12:34 1.1 °F -0.7 °F 1022.2 in SW 7.4 mph 6.1 mph 88% 0.0 in WeatherDisplay:10.37 W/m2 CLR
12:39 1.2 °F -0.6 °F 1021.8 in SW 13.0 mph 8.7 mph 88% 0.0 in WeatherDisplay:10.37 W/m2 CLR
12:44 1.2 °F -0.6 °F 1022.2 in WSW 13.0 mph 8.7 mph 88% 0.0 in WeatherDisplay:10.37 W/m2 CLR
12:49 1.6 °F -0.2 °F 1021.8 in South 9.3 mph 6.8 mph 88% 0.0 in WeatherDisplay:10.37 W/m2 CLR
12:54 1.9 °F -0.2 °F 1021.8 in South 9.3 mph 6.1 mph 86% 0.0 in WeatherDisplay:10.37 W/m2 CLR
12:59 1.7 °F -0.4 °F 1021.8 in WNW 14.8 mph 10.8 mph 86% 0.0 in WeatherDisplay:10.37 W/m2 CLR
13:04 1.7 °F -0.4 °F 1021.5 in South 11.1 mph 9.0 mph 86% 0.0 in WeatherDisplay:10.37 W/m2 CLR
13:09 1.9 °F -0.2 °F 1021.8 in SSW 16.7 mph 9.7 mph 86% 0.0 in WeatherDisplay:10.37 W/m2 CLR
13:14 1.9 °F -0.7 °F 1021.5 in SW 11.1 mph 7.9 mph 83% 0.0 in WeatherDisplay:10.37 W/m2 CLR
13:19 1.9 °F -0.7 °F 1021.5 in SW 7.4 mph 9.3 mph 83% 0.0 in WeatherDisplay:10.37 W/m2 CLR
13:24 2.1 °F -0.2 °F 1021.5 in SSW 12.9 mph 7.9 mph 85% 0.0 in WeatherDisplay:10.37 W/m2 CLR
13:29 2.1 °F -0.5 °F 1021.5 in NW 11.1 mph 9.3 mph 83% 0.0 in WeatherDisplay:10.37 W/m2 CLR
13:34 2.2 °F -0.4 °F 1021.8 in SSW 11.1 mph 9.3 mph 83% 0.0 in WeatherDisplay:10.37 W/m2 CLR
13:39 2.3 °F -0.3 °F 1021.5 in SSW 7.4 mph 7.6 mph 83% 0.0 in WeatherDisplay:10.37 W/m2 CLR
13:44 2.5 °F -0.4 °F 1021.5 in West 14.8 mph 8.7 mph 81% 0.0 in WeatherDisplay:10.37 W/m2 CLR
13:49 2.5 °F -0.4 °F 1021.8 in SSW 9.3 mph 8.2 mph 81% 0.0 in WeatherDisplay:10.37 W/m2 CLR
13:54 2.6 °F -0.3 °F 1021.8 in SW 5.6 mph 3.5 mph 81% 0.0 in WeatherDisplay:10.37 W/m2 CLR
13:59 3.0 °F -0.1 °F 1021.8 in SW 5.6 mph 4.7 mph 80% 0.0 in WeatherDisplay:10.37 W/m2 CLR
14:04 3.0 °F -0.1 °F 1021.8 in South 9.7 mph 6.8 mph 80% 0.0 in WeatherDisplay:10.37 W/m2 CLR
14:09 2.9 °F -0.2 °F 1021.8 in SW 14.8 mph 7.6 mph 80% 0.0 in WeatherDisplay:10.37 W/m2 CLR
14:14 3.0 °F -0.1 °F 1021.8 in SSW 9.3 mph 7.2 mph 80% 0.0 in WeatherDisplay:10.37 W/m2 CLR
14:19 3.0 °F -0.1 °F 1022.2 in SSW 9.7 mph 7.9 mph 80% 0.0 in WeatherDisplay:10.37 W/m2 CLR
14:24 3.1 °F -0.2 °F 1021.8 in West 16.7 mph 8.7 mph 79% 0.0 in WeatherDisplay:10.37 W/m2 CLR
14:29 3.1 °F -0.2 °F 1021.8 in SSW 9.3 mph 7.2 mph 79% 0.0 in WeatherDisplay:10.37 W/m2 CLR
14:34 3.1 °F -0.2 °F 1022.2 in SSW 11.1 mph 10.1 mph 79% 0.0 in WeatherDisplay:10.37 W/m2 CLR
14:39 3.1 °F -0.2 °F 1022.2 in SW 11.1 mph 7.9 mph 79% 0.0 in WeatherDisplay:10.37 W/m2 CLR
14:44 2.9 °F 0.3 °F 1022.2 in SW 7.4 mph 7.6 mph 83% 0.0 in WeatherDisplay:10.37 W/m2 CLR
14:49 2.5 °F 0.2 °F 1022.2 in SSE 9.3 mph 7.9 mph 85% 0.0 in WeatherDisplay:10.37 W/m2 CLR
14:54 2.5 °F 0.2 °F 1022.2 in South 9.3 mph 6.1 mph 85% 0.0 in WeatherDisplay:10.37 W/m2 CLR
14:59 2.1 °F -0.2 °F 1022.5 in SW 9.7 mph 6.8 mph 85% 0.0 in WeatherDisplay:10.37 W/m2 CLR
15:04 1.9 °F -0.2 °F 1022.2 in SSW 7.9 mph 6.1 mph 86% 0.0 in WeatherDisplay:10.37 W/m2 CLR
15:09 1.7 °F -0.4 °F 1022.5 in South 5.6 mph 5.8 mph 86% 0.0 in WeatherDisplay:10.37 W/m2 CLR
15:14 1.5 °F -0.6 °F 1022.5 in SE 7.4 mph 5.8 mph 86% 0.0 in WeatherDisplay:10.37 W/m2 CLR
15:19 1.2 °F -0.6 °F 1022.2 in SE 5.6 mph 5.8 mph 88% 0.0 in WeatherDisplay:10.37 W/m2 CLR
15:24 1.1 °F -0.7 °F 1022.2 in SE 11.1 mph 7.9 mph 88% 0.0 in WeatherDisplay:10.37 W/m2 CLR
15:29 1.0 °F -0.8 °F 1022.5 in South 11.1 mph 5.8 mph 88% 0.0 in WeatherDisplay:10.37 W/m2 CLR
15:34 0.8 °F -0.9 °F 1022.5 in South 11.1 mph 7.9 mph 88% 0.0 in WeatherDisplay:10.37 W/m2 CLR
15:39 0.8 °F -0.9 °F 1022.2 in SSW 11.1 mph 9.0 mph 88% 0.0 in WeatherDisplay:10.37 W/m2 CLR
15:44 0.7 °F -1.1 °F 1022.2 in SSE 5.6 mph 6.4 mph 88% 0.0 in WeatherDisplay:10.37 W/m2 CLR
15:49 0.6 °F -1.2 °F 1022.2 in SSE 9.3 mph 6.1 mph 88% 0.0 in WeatherDisplay:10.37 W/m2 CLR
15:54 0.5 °F -1.3 °F 1022.5 in South 9.3 mph 6.8 mph 88% 0.0 in WeatherDisplay:10.37 W/m2 CLR
15:59 0.3 °F -1.2 °F 1022.5 in SSW 7.9 mph 6.4 mph 90% 0.0 in WeatherDisplay:10.37 W/m2 CLR
16:04 0.1 °F -1.3 °F 1022.5 in South 9.7 mph 6.4 mph 90% 0.0 in WeatherDisplay:10.37 W/m2 CLR
16:09 -0.1 °F -1.6 °F 1022.5 in South 9.3 mph 6.4 mph 90% 0.0 in WeatherDisplay:10.37 W/m2 CLR
16:14 -0.2 °F -1.7 °F 1022.2 in SSW 9.3 mph 6.1 mph 90% 0.0 in WeatherDisplay:10.37 W/m2 CLR
16:19 -0.3 °F -1.6 °F 1022.5 in South 7.4 mph 5.5 mph 91% 0.0 in WeatherDisplay:10.37 W/m2 CLR
16:24 -0.4 °F -1.7 °F 1022.2 in SSW 9.3 mph 6.1 mph 91% 0.0 in WeatherDisplay:10.37 W/m2 CLR
16:29 -0.5 °F -1.8 °F 1022.2 in SW 11.1 mph 7.6 mph 91% 0.0 in WeatherDisplay:10.37 W/m2 CLR
16:34 -0.7 °F -2.0 °F 1022.2 in SSW 5.6 mph 6.8 mph 91% 0.0 in WeatherDisplay:10.37 W/m2 CLR
16:39 -0.7 °F -2.0 °F 1022.5 in South 7.4 mph 6.8 mph 91% 0.0 in WeatherDisplay:10.37 W/m2 CLR
16:44 -0.7 °F -2.0 °F 1022.2 in SSW 3.7 mph 7.2 mph 91% 0.0 in WeatherDisplay:10.37 W/m2 CLR
16:49 -0.8 °F -2.1 °F 1022.5 in SSW 6.4 mph 5.8 mph 91% 0.0 in WeatherDisplay:10.37 W/m2 CLR
16:54 -0.9 °F -2.2 °F 1022.5 in SSW 5.6 mph 4.7 mph 91% 0.0 in WeatherDisplay:10.37 W/m2 CLR
16:59 -1.1 °F -2.4 °F 1022.8 in South 5.6 mph 6.4 mph 91% 0.0 in WeatherDisplay:10.37 W/m2 CLR
17:04 -1.1 °F -2.4 °F 1022.5 in SSW 6.4 mph 6.1 mph 91% 0.0 in WeatherDisplay:10.37 W/m2 CLR
17:09 -1.1 °F -2.4 °F 1022.8 in South 3.7 mph 4.3 mph 91% 0.0 in WeatherDisplay:10.37 W/m2 CLR
17:14 -1.2 °F -2.5 °F 1022.8 in SSW 3.7 mph 5.5 mph 91% 0.0 in WeatherDisplay:10.37 W/m2 CLR
17:19 -1.3 °F -2.6 °F 1022.8 in SSW 5.6 mph 5.8 mph 91% 0.0 in WeatherDisplay:10.37 W/m2 CLR
17:24 -1.3 °F -2.6 °F 1022.8 in SSE 5.6 mph 4.7 mph 91% 0.0 in WeatherDisplay:10.37 W/m2 CLR
17:29 -1.3 °F -2.6 °F 1022.8 in South 5.6 mph 5.0 mph 91% 0.0 in WeatherDisplay:10.37 W/m2 CLR
17:34 -1.4 °F -2.7 °F 1023.2 in South 5.6 mph 4.3 mph 91% 0.0 in WeatherDisplay:10.37 W/m2 CLR
17:39 -1.4 °F -2.7 °F 1023.2 in SW 7.4 mph 4.3 mph 91% 0.0 in WeatherDisplay:10.37 W/m2 CLR
17:44 -1.4 °F -2.7 °F 1023.2 in South 6.4 mph 5.8 mph 91% 0.0 in WeatherDisplay:10.37 W/m2 CLR
17:49 -1.4 °F -2.7 °F 1023.5 in South 3.7 mph 5.8 mph 91% 0.0 in WeatherDisplay:10.37 W/m2 CLR
17:54 -1.3 °F -2.6 °F 1023.2 in South 6.4 mph 4.7 mph 91% 0.0 in WeatherDisplay:10.37 W/m2 CLR
17:59 -1.3 °F -2.6 °F 1023.2 in South 5.6 mph 6.1 mph 91% 0.0 in WeatherDisplay:10.37 W/m2 CLR
18:04 -1.3 °F -2.6 °F 1023.5 in SSW 7.4 mph 6.4 mph 91% 0.0 in WeatherDisplay:10.37 W/m2 CLR
18:09 -1.3 °F -2.6 °F 1023.2 in SSW 7.9 mph 5.5 mph 91% 0.0 in WeatherDisplay:10.37 W/m2 CLR
18:14 -1.3 °F -2.6 °F 1023.2 in SSW 9.3 mph 6.8 mph 91% 0.0 in WeatherDisplay:10.37 W/m2 CLR
18:19 -1.3 °F -2.6 °F 1023.2 in South 5.6 mph 5.5 mph 91% 0.0 in WeatherDisplay:10.37 W/m2 CLR
18:24 -1.4 °F -2.7 °F 1023.5 in SSW 7.4 mph 5.8 mph 91% 0.0 in WeatherDisplay:10.37 W/m2 CLR
18:29 -1.4 °F -2.7 °F 1023.5 in SW 5.6 mph 5.5 mph 91% 0.0 in WeatherDisplay:10.37 W/m2 CLR
18:34 -1.6 °F -2.9 °F 1023.5 in SSW 9.3 mph 6.1 mph 91% 0.0 in WeatherDisplay:10.37 W/m2 CLR
18:39 -1.6 °F -2.9 °F 1023.5 in SSW 5.6 mph 6.8 mph 91% 0.0 in WeatherDisplay:10.37 W/m2 CLR
18:44 -1.6 °F -2.9 °F 1023.5 in SW 9.7 mph 7.9 mph 91% 0.0 in WeatherDisplay:10.37 W/m2 CLR
18:49 -1.6 °F -2.9 °F 1023.5 in SSW 9.3 mph 5.5 mph 91% 0.0 in WeatherDisplay:10.37 W/m2 CLR
18:54 -1.6 °F -2.9 °F 1023.5 in South 11.1 mph 5.5 mph 91% 0.0 in WeatherDisplay:10.37 W/m2 CLR
18:59 -1.6 °F -2.9 °F 1023.9 in SW 5.6 mph 5.8 mph 91% 0.0 in WeatherDisplay:10.37 W/m2 CLR
19:04 -1.6 °F -2.9 °F 1023.5 in South 7.9 mph 5.5 mph 91% 0.0 in WeatherDisplay:10.37 W/m2 CLR
19:09 -1.6 °F -2.9 °F 1023.9 in SSW 9.3 mph 6.1 mph 91% 0.0 in WeatherDisplay:10.37 W/m2 CLR
19:14 -1.6 °F -2.9 °F 1023.9 in WSW 6.4 mph 6.1 mph 91% 0.0 in WeatherDisplay:10.37 W/m2 CLR
19:19 -1.6 °F -2.9 °F 1023.9 in SSW 5.6 mph 5.5 mph 91% 0.0 in WeatherDisplay:10.37 W/m2 CLR
19:24 -1.6 °F -2.9 °F 1023.9 in South 5.6 mph 5.0 mph 91% 0.0 in WeatherDisplay:10.37 W/m2 CLR
19:29 -1.8 °F -3.1 °F 1023.9 in SSW 5.6 mph 4.7 mph 91% 0.0 in WeatherDisplay:10.37 W/m2 CLR
19:34 -1.8 °F -3.1 °F 1023.9 in SSW 9.7 mph 5.0 mph 91% 0.0 in WeatherDisplay:10.37 W/m2 CLR
19:39 -1.8 °F -3.1 °F 1023.9 in SSW 7.4 mph 5.8 mph 91% 0.0 in WeatherDisplay:10.37 W/m2 CLR
19:44 -1.9 °F -3.2 °F 1023.5 in West 5.6 mph 4.7 mph 91% 0.0 in WeatherDisplay:10.37 W/m2 CLR
19:49 -1.9 °F -3.2 °F 1023.9 in SSE 3.7 mph 3.5 mph 91% 0.0 in WeatherDisplay:10.37 W/m2 CLR
19:54 -1.9 °F -3.2 °F 1023.9 in South 3.7 mph 3.2 mph 91% 0.0 in WeatherDisplay:10.37 W/m2 CLR
19:59 -1.9 °F -3.2 °F 1023.9 in SSW 6.4 mph 5.0 mph 91% 0.0 in WeatherDisplay:10.37 W/m2 CLR
20:04 -1.9 °F -3.2 °F 1023.9 in South 5.6 mph 5.0 mph 91% 0.0 in WeatherDisplay:10.37 W/m2 CLR
20:09 -2.1 °F -3.4 °F 1023.9 in SW 5.6 mph 5.0 mph 91% 0.0 in WeatherDisplay:10.37 W/m2 CLR
20:14 -2.1 °F -3.4 °F 1023.9 in South 5.6 mph 4.0 mph 91% 0.0 in WeatherDisplay:10.37 W/m2 CLR
20:19 -2.3 °F -3.6 °F 1023.9 in SW 5.6 mph 4.3 mph 91% 0.0 in WeatherDisplay:10.37 W/m2 CLR
20:24 -2.3 °F -3.6 °F 1023.5 in SW 6.4 mph 4.0 mph 91% 0.0 in WeatherDisplay:10.37 W/m2 CLR
20:29 -2.3 °F -3.6 °F 1023.9 in South 6.4 mph 4.7 mph 91% 0.0 in WeatherDisplay:10.37 W/m2 CLR
20:34 -2.3 °F -3.6 °F 1023.9 in SSW 5.6 mph 5.0 mph 91% 0.0 in WeatherDisplay:10.37 W/m2 CLR
20:39 -2.3 °F -3.6 °F 1023.9 in SSE 7.4 mph 5.0 mph 91% 0.0 in WeatherDisplay:10.37 W/m2 CLR
20:44 -2.3 °F -3.6 °F 1023.9 in SSW 9.7 mph 4.7 mph 91% 0.0 in WeatherDisplay:10.37 W/m2 CLR
20:49 -2.4 °F -3.7 °F 1023.5 in WSW 3.7 mph 4.3 mph 91% 0.0 in WeatherDisplay:10.37 W/m2 CLR
20:54 -2.4 °F -3.7 °F 1023.5 in South 5.6 mph 3.2 mph 91% 0.0 in WeatherDisplay:10.37 W/m2 CLR
20:59 -2.4 °F -3.7 °F 1023.9 in SSW 3.7 mph 3.2 mph 91% 0.0 in WeatherDisplay:10.37 W/m2 CLR
21:04 -2.4 °F -3.7 °F 1023.9 in SSW 5.6 mph 5.5 mph 91% 0.0 in WeatherDisplay:10.37 W/m2 CLR
21:09 -2.4 °F -3.7 °F 1023.9 in SSW 6.4 mph 5.8 mph 91% 0.0 in WeatherDisplay:10.37 W/m2 CLR
21:14 -2.4 °F -3.7 °F 1023.5 in SSW 3.7 mph 3.2 mph 91% 0.0 in WeatherDisplay:10.37 W/m2 CLR
21:19 -2.6 °F -3.6 °F 1023.5 in South 3.7 mph 2.6 mph 93% 0.0 in WeatherDisplay:10.37 W/m2 CLR
21:24 -2.7 °F -3.7 °F 1023.5 in South 1.9 mph 2.1 mph 93% 0.0 in WeatherDisplay:10.37 W/m2 CLR
21:29 -2.7 °F -3.7 °F 1023.9 in SSW 5.6 mph 3.2 mph 93% 0.0 in WeatherDisplay:10.37 W/m2 CLR
21:34 -2.7 °F -3.7 °F 1023.9 in SSW 5.6 mph 3.5 mph 93% 0.0 in WeatherDisplay:10.37 W/m2 CLR
21:39 -2.6 °F -3.6 °F 1023.9 in SSW 5.6 mph 4.3 mph 93% 0.0 in WeatherDisplay:10.37 W/m2 CLR
21:44 -2.5 °F -3.5 °F 1023.5 in SSW 5.6 mph 4.0 mph 93% 0.0 in WeatherDisplay:10.37 W/m2 CLR
21:49 -2.6 °F -3.6 °F 1023.5 in South 5.6 mph 3.5 mph 93% 0.0 in WeatherDisplay:10.37 W/m2 CLR
21:54 -2.7 °F -3.7 °F 1023.5 in SSW 5.6 mph 3.2 mph 93% 0.0 in WeatherDisplay:10.37 W/m2 CLR
21:59 -2.7 °F -3.7 °F 1023.5 in SW 5.6 mph 3.5 mph 93% 0.0 in WeatherDisplay:10.37 W/m2 CLR
22:04 -2.8 °F -3.8 °F 1023.5 in SSW 5.6 mph 3.5 mph 93% 0.0 in WeatherDisplay:10.37 W/m2 CLR
22:09 -2.8 °F -3.8 °F 1023.2 in SSW 5.6 mph 3.2 mph 93% 0.0 in WeatherDisplay:10.37 W/m2 CLR
22:14 -2.8 °F -3.8 °F 1023.5 in SSW 5.6 mph 5.0 mph 93% 0.0 in WeatherDisplay:10.37 W/m2 CLR
22:19 -2.8 °F -3.8 °F 1023.5 in SSW 3.7 mph 3.5 mph 93% 0.0 in WeatherDisplay:10.37 W/m2 CLR
22:24 -2.8 °F -3.8 °F 1023.5 in SSW 3.7 mph 3.2 mph 93% 0.0 in WeatherDisplay:10.37 W/m2 CLR
22:29 -2.8 °F -3.8 °F 1023.5 in SSW 3.7 mph 3.2 mph 93% 0.0 in WeatherDisplay:10.37 W/m2 CLR
22:34 -3.0 °F -4.0 °F 1023.5 in Calm   0.3 mph 93% 0.0 in WeatherDisplay:10.37 W/m2 CLR
22:39 -3.2 °F -4.2 °F 1023.5 in Calm   0.3 mph 93% 0.0 in WeatherDisplay:10.37 W/m2 CLR
22:44 -3.5 °F -4.4 °F 1023.9 in Calm     93% 0.0 in WeatherDisplay:10.37 W/m2 CLR
22:49 -3.7 °F -4.7 °F 1023.9 in Calm     93% 0.0 in WeatherDisplay:10.37 W/m2 CLR
22:54 -3.7 °F -4.7 °F 1024.0 in Calm     93% 0.0 in WeatherDisplay:10.37 W/m2 CLR
22:59 -3.8 °F -4.8 °F 1024.3 in Calm     93% 0.0 in WeatherDisplay:10.37 W/m2 CLR
Juneau County Weather
Compliments of Weather Underground - 3.5 mb